createdAt,value
2023-04-08T00:01:30.645Z,102814.00
2023-04-08T00:03:59.456Z,102810.16
2023-04-08T00:06:28.396Z,102800.34
2023-04-08T00:08:59.389Z,102820.56
2023-04-08T00:11:27.865Z,102791.41
2023-04-08T00:13:56.083Z,102808.16
2023-04-08T00:16:24.838Z,102802.91
2023-04-08T00:18:54.725Z,102769.34
2023-04-08T00:21:23.591Z,102801.63
2023-04-08T00:23:52.317Z,102796.91
2023-04-08T00:26:21.806Z,102788.53
2023-04-08T00:28:50.983Z,102792.88
2023-04-08T00:31:19.801Z,102798.44
2023-04-08T00:33:47.976Z,102789.28
2023-04-08T00:36:17.812Z,102788.25
2023-04-08T00:38:46.245Z,102794.44
2023-04-08T00:41:14.447Z,102793.91
2023-04-08T00:43:42.994Z,102795.88
2023-04-08T00:46:12.042Z,102793.59
2023-04-08T00:48:40.800Z,102795.38
2023-04-08T00:51:09.578Z,102789.84
2023-04-08T00:53:39.752Z,102787.13
2023-04-08T00:56:07.901Z,102790.22
2023-04-08T00:58:36.084Z,102795.47
2023-04-08T01:01:12.236Z,102791.59
2023-04-08T01:03:47.926Z,102793.28
2023-04-08T01:06:28.019Z,102801.13
2023-04-08T01:09:00.885Z,102796.31
2023-04-08T01:11:31.548Z,102791.91
2023-04-08T01:14:01.258Z,102804.09
2023-04-08T01:16:30.358Z,102790.13
2023-04-08T01:18:58.777Z,102797.97
2023-04-08T01:21:30.209Z,102802.44
2023-04-08T01:24:08.062Z,102800.38
2023-04-08T01:26:38.538Z,102800.75
2023-04-08T01:29:09.323Z,102799.53
2023-04-08T01:31:38.386Z,102808.00
2023-04-08T01:34:08.864Z,102801.59
2023-04-08T01:36:40.348Z,102800.34
2023-04-08T01:39:09.396Z,102801.81
2023-04-08T01:41:39.895Z,102810.91
2023-04-08T01:44:08.281Z,102800.34
2023-04-08T01:46:37.346Z,102808.66
2023-04-08T01:49:07.617Z,102808.16
2023-04-08T01:51:38.292Z,102810.91
2023-04-08T01:54:07.876Z,102808.66
2023-04-08T01:56:42.658Z,102806.13
2023-04-08T01:59:14.407Z,102804.09
2023-04-08T02:01:44.442Z,102787.72
2023-04-08T02:04:14.517Z,102810.91
2023-04-08T02:06:42.760Z,102821.06
2023-04-08T02:09:11.421Z,102824.03
2023-04-08T02:11:41.107Z,102832.28
2023-04-08T02:14:09.349Z,102829.09
2023-04-08T02:16:44.315Z,102832.97
2023-04-08T02:19:17.178Z,102833.72
2023-04-08T02:21:50.432Z,102832.28
2023-04-08T02:24:19.587Z,102835.84
2023-04-08T02:26:52.173Z,102816.00
2023-04-08T02:29:20.628Z,102843.75
2023-04-08T02:31:51.540Z,102842.66
2023-04-08T02:34:23.327Z,102850.31
2023-04-08T02:36:52.349Z,102843.38
2023-04-08T02:39:20.575Z,102809.44
2023-04-08T02:41:50.485Z,102845.09
2023-04-08T02:44:18.978Z,102848.69
2023-04-08T02:46:47.059Z,102847.34
2023-04-08T02:49:15.436Z,102853.19
2023-04-08T02:51:43.867Z,102853.75
2023-04-08T02:54:12.043Z,102844.50
2023-04-08T02:56:40.657Z,102857.47
2023-04-08T02:59:10.836Z,102853.44
2023-04-08T03:01:39.096Z,102859.63
2023-04-08T03:04:07.474Z,102854.59
2023-04-08T03:06:35.675Z,102863.81
2023-04-08T03:09:04.025Z,102861.03
2023-04-08T03:11:32.325Z,102860.34
2023-04-08T03:14:00.790Z,102858.06
2023-04-08T03:16:30.830Z,102871.19
2023-04-08T03:18:59.199Z,102868.09
2023-04-08T03:21:28.088Z,102874.31
2023-04-08T03:23:56.666Z,102877.84
2023-04-08T03:26:25.031Z,102870.09
2023-04-08T03:28:54.141Z,102875.69
2023-04-08T03:31:22.553Z,102869.75
2023-04-08T03:33:52.121Z,102870.09
2023-04-08T03:36:20.434Z,102878.19
2023-04-08T03:38:48.836Z,102873.31
2023-04-08T03:41:17.514Z,102881.56
2023-04-08T03:43:45.900Z,102878.88
2023-04-08T03:46:14.408Z,102879.69
2023-04-08T03:48:42.897Z,102866.84
2023-04-08T03:51:12.972Z,102872.91
2023-04-08T03:53:41.150Z,102881.84
2023-04-08T03:56:10.136Z,102877.66
2023-04-08T03:58:38.472Z,102888.16
2023-04-08T04:01:06.864Z,102887.44
2023-04-08T04:03:35.550Z,102892.75
2023-04-08T04:06:03.968Z,102881.13
2023-04-08T04:08:33.828Z,102890.06
2023-04-08T04:11:02.808Z,102871.56
2023-04-08T04:13:31.069Z,102894.50
2023-04-08T04:15:59.392Z,102905.72
2023-04-08T04:18:30.498Z,102894.81
2023-04-08T04:20:58.758Z,102890.88
2023-04-08T04:23:26.963Z,102902.97
2023-04-08T04:25:56.966Z,102886.28
2023-04-08T04:28:25.576Z,102903.94
2023-04-08T04:30:56.367Z,102901.81
2023-04-08T04:33:25.520Z,102902.78
2023-04-08T04:35:54.514Z,102899.03
2023-04-08T04:38:22.744Z,102896.25
2023-04-08T04:40:51.001Z,102914.03
2023-04-08T04:43:20.688Z,102903.94
2023-04-08T04:45:48.784Z,102909.53
2023-04-08T04:48:17.163Z,102917.13
2023-04-08T04:50:45.632Z,102914.13
2023-04-08T04:53:13.757Z,102917.00
2023-04-08T04:55:42.079Z,102921.06
2023-04-08T04:58:10.185Z,102918.78
2023-04-08T05:00:40.483Z,102920.28
2023-04-08T05:03:09.175Z,102916.94
2023-04-08T05:05:37.604Z,102920.97
2023-04-08T05:08:07.445Z,102924.09
2023-04-08T05:10:35.759Z,102918.22
2023-04-08T05:13:03.996Z,102924.19
2023-04-08T05:15:32.067Z,102911.38
2023-04-08T05:18:02.165Z,102921.41
2023-04-08T05:20:30.507Z,102933.38
2023-04-08T05:22:58.707Z,102935.16
2023-04-08T05:25:27.406Z,102924.94
2023-04-08T05:27:56.606Z,102911.09
2023-04-08T05:30:25.366Z,102921.72
2023-04-08T05:32:57.115Z,102929.56
2023-04-08T05:35:28.709Z,102922.75
2023-04-08T05:37:59.939Z,102923.25
2023-04-08T05:40:28.434Z,102928.59
2023-04-08T05:42:56.902Z,102920.75
2023-04-08T05:45:25.469Z,102920.81
2023-04-08T05:47:53.746Z,102924.81
2023-04-08T05:50:22.061Z,102932.66
2023-04-08T05:52:54.070Z,102924.44
2023-04-08T05:55:22.383Z,102886.69
2023-04-08T05:57:50.870Z,102931.53
2023-04-08T06:00:20.555Z,102929.81
2023-04-08T06:02:48.905Z,102938.06
2023-04-08T06:05:19.346Z,102932.94
2023-04-08T06:07:47.705Z,102927.28
2023-04-08T06:10:17.749Z,102937.69
2023-04-08T06:12:45.907Z,102940.25
2023-04-08T06:15:14.132Z,102943.91
2023-04-08T06:17:42.423Z,102905.19
2023-04-08T06:20:11.088Z,102943.63
2023-04-08T06:22:39.512Z,102949.25
2023-04-08T06:25:08.339Z,102949.75
2023-04-08T06:27:37.998Z,102952.13
2023-04-08T06:30:07.281Z,102956.38
2023-04-08T06:32:35.753Z,102949.03
2023-04-08T06:35:04.362Z,102964.38
2023-04-08T06:37:34.708Z,102939.25
2023-04-08T06:40:03.123Z,102960.06
2023-04-08T06:42:34.265Z,102966.81
2023-04-08T06:45:04.090Z,102964.41
2023-04-08T06:47:32.516Z,102974.66
2023-04-08T06:50:00.990Z,102973.06
2023-04-08T06:52:29.248Z,102971.06
2023-04-08T06:54:57.879Z,102972.19
2023-04-08T06:57:25.962Z,102978.78
2023-04-08T06:59:54.467Z,102982.28
2023-04-08T07:02:24.672Z,102982.16
2023-04-08T07:04:53.520Z,102966.06
2023-04-08T07:07:21.798Z,102976.28
2023-04-08T07:09:50.480Z,102976.81
2023-04-08T07:12:19.214Z,102987.34
2023-04-08T07:14:47.473Z,102985.16
2023-04-08T07:17:16.144Z,102972.16
2023-04-08T07:19:46.357Z,102978.47
2023-04-08T07:22:14.637Z,102982.50
2023-04-08T07:24:45.692Z,102973.03
2023-04-08T07:27:13.796Z,102974.94
2023-04-08T07:29:42.116Z,102979.00
2023-04-08T07:32:10.572Z,102993.53
2023-04-08T07:34:38.809Z,102977.97
2023-04-08T07:37:08.339Z,102981.91
2023-04-08T07:39:36.772Z,102986.72
2023-04-08T07:42:04.970Z,102980.38
2023-04-08T07:44:33.468Z,102977.00
2023-04-08T07:47:01.829Z,102975.59
2023-04-08T07:49:30.139Z,102980.06
2023-04-08T07:51:58.873Z,102950.25
2023-04-08T07:54:29.178Z,102981.06
2023-04-08T07:57:00.050Z,102986.44
2023-04-08T07:59:29.112Z,102989.28
2023-04-08T08:01:57.248Z,102989.63
2023-04-08T08:04:27.162Z,102983.75
2023-04-08T08:06:55.573Z,102982.75
2023-04-08T08:09:23.739Z,102992.78
2023-04-08T08:11:53.360Z,102992.78
2023-04-08T08:14:21.919Z,102997.63
2023-04-08T08:16:52.818Z,102992.63
2023-04-08T08:19:21.048Z,102987.81
2023-04-08T08:21:50.392Z,103001.66
2023-04-08T08:24:18.549Z,103004.69
2023-04-08T08:26:49.484Z,102997.63
2023-04-08T08:29:19.626Z,103000.81
2023-04-08T08:31:48.794Z,103004.03
2023-04-08T08:34:17.053Z,103007.03
2023-04-08T08:36:45.462Z,103013.22
2023-04-08T08:39:13.651Z,103010.97
2023-04-08T08:41:42.492Z,103012.41
2023-04-08T08:44:13.071Z,103022.94
2023-04-08T08:46:46.144Z,103014.56
2023-04-08T08:49:14.583Z,103015.88
2023-04-08T08:51:43.166Z,103016.78
2023-04-08T08:54:11.532Z,103016.19
2023-04-08T08:56:39.992Z,103018.34
2023-04-08T08:59:08.107Z,103017.97
2023-04-08T09:01:38.501Z,103010.94
2023-04-08T09:04:17.330Z,103013.69
2023-04-08T09:06:47.013Z,103022.44
2023-04-08T09:09:15.767Z,103017.53
2023-04-08T09:11:45.122Z,103014.75
2023-04-08T09:14:24.339Z,103014.59
2023-04-08T09:16:53.820Z,103006.72
2023-04-08T09:19:23.824Z,103008.59
2023-04-08T09:22:07.602Z,103011.97
2023-04-08T09:24:37.243Z,103011.41
2023-04-08T09:27:06.149Z,103025.81
2023-04-08T09:29:38.237Z,103011.69
2023-04-08T09:32:08.124Z,102992.41
2023-04-08T09:34:37.791Z,103007.75
2023-04-08T09:37:05.864Z,103009.22
2023-04-08T09:39:34.219Z,103008.09
2023-04-08T09:42:06.996Z,102971.91
2023-04-08T09:44:38.246Z,103002.88
2023-04-08T09:47:16.716Z,102995.75
2023-04-08T09:49:52.640Z,103002.88
2023-04-08T09:52:24.881Z,102999.56
2023-04-08T09:54:56.875Z,102999.00
2023-04-08T09:57:32.258Z,103002.50
2023-04-08T10:00:06.750Z,103004.38
2023-04-08T10:02:46.577Z,102998.94
2023-04-08T10:05:18.576Z,102993.03
2023-04-08T10:07:47.313Z,102992.63
2023-04-08T10:10:16.184Z,102980.56
2023-04-08T10:12:45.185Z,102970.75
2023-04-08T10:15:30.042Z,102943.38
2023-04-08T10:18:36.650Z,102947.56
2023-04-08T10:21:06.686Z,102983.75
2023-04-08T10:23:59.734Z,102974.22
2023-04-08T10:26:42.410Z,102961.81
2023-04-08T10:29:43.901Z,102975.41
2023-04-08T10:32:30.347Z,102978.81
2023-04-08T10:34:58.929Z,102974.09
2023-04-08T10:37:29.101Z,102975.97
2023-04-08T10:39:57.433Z,102966.22
2023-04-08T10:42:29.868Z,102958.22
2023-04-08T10:45:02.164Z,102944.94
2023-04-08T10:47:30.501Z,102964.16
2023-04-08T10:49:58.840Z,102952.44
2023-04-08T10:52:28.814Z,102950.53
2023-04-08T10:54:57.476Z,102950.03
2023-04-08T10:57:26.438Z,102949.63
2023-04-08T10:59:54.877Z,102945.16
2023-04-08T11:02:23.324Z,102946.41
2023-04-08T11:04:51.617Z,102941.53
2023-04-08T11:07:22.043Z,102939.09
2023-04-08T11:09:52.247Z,102945.34
2023-04-08T11:12:21.853Z,102933.19
2023-04-08T11:14:51.886Z,102939.22
2023-04-08T11:17:20.868Z,102932.31
2023-04-08T11:19:49.100Z,102927.94
2023-04-08T11:22:18.833Z,102918.38
2023-04-08T11:24:47.274Z,102921.72
2023-04-08T11:27:17.301Z,102926.78
2023-04-08T11:29:46.351Z,102921.53
2023-04-08T11:32:14.829Z,102930.34
2023-04-08T11:34:43.216Z,102924.91
2023-04-08T11:37:11.463Z,102914.41
2023-04-08T11:39:44.410Z,102928.56
2023-04-08T11:42:29.881Z,102918.13
2023-04-08T11:44:59.112Z,102918.91
2023-04-08T11:47:33.729Z,102925.09
2023-04-08T11:50:02.956Z,102921.47
2023-04-08T11:52:45.388Z,102922.81
2023-04-08T11:55:14.638Z,102925.50
2023-04-08T11:57:44.281Z,102921.88
2023-04-08T12:00:13.323Z,102916.59
2023-04-08T12:02:44.972Z,102925.81
2023-04-08T12:05:14.273Z,102913.41
2023-04-08T12:07:42.979Z,102915.16
2023-04-08T12:10:11.957Z,102916.22
2023-04-08T12:12:40.962Z,102901.16
2023-04-08T12:15:11.986Z,102902.94
2023-04-08T12:17:40.253Z,102906.47
2023-04-08T12:20:09.112Z,102908.31
2023-04-08T12:22:37.852Z,102894.03
2023-04-08T12:25:06.607Z,102889.63
2023-04-08T12:27:35.203Z,102899.38
2023-04-08T12:30:04.326Z,102906.50
2023-04-08T12:32:34.952Z,102905.59
2023-04-08T12:35:03.237Z,102904.59
2023-04-08T12:37:33.508Z,102893.19
2023-04-08T12:40:02.331Z,102904.63
2023-04-08T12:42:30.727Z,102900.34
2023-04-08T12:44:59.699Z,102879.03
2023-04-08T12:47:30.942Z,102887.03
2023-04-08T12:50:00.591Z,102893.16
2023-04-08T12:52:28.831Z,102896.66
2023-04-08T12:54:57.225Z,102889.63
2023-04-08T12:57:25.829Z,102887.91
2023-04-08T12:59:54.580Z,102881.78
2023-04-08T13:02:23.073Z,102889.56
2023-04-08T13:04:52.361Z,102881.69
2023-04-08T13:07:21.903Z,102846.16
2023-04-08T13:09:50.122Z,102874.59
2023-04-08T13:12:18.436Z,102882.63
2023-04-08T13:14:47.124Z,102874.66
2023-04-08T13:17:15.560Z,102881.75
2023-04-08T13:19:43.838Z,102879.00
2023-04-08T13:22:11.961Z,102872.84
2023-04-08T13:24:41.719Z,102847.94
2023-04-08T13:27:09.997Z,102874.59
2023-04-08T13:29:38.140Z,102875.56
2023-04-08T13:32:06.727Z,102884.38
2023-04-08T13:34:35.024Z,102875.47
2023-04-08T13:37:03.469Z,102851.56
2023-04-08T13:39:31.992Z,102876.44
2023-04-08T13:42:01.853Z,102873.88
2023-04-08T13:44:30.129Z,102863.19
2023-04-08T13:46:58.862Z,102857.84
2023-04-08T13:49:27.774Z,102865.88
2023-04-08T13:51:55.982Z,102845.44
2023-04-08T13:54:24.327Z,102861.47
2023-04-08T13:56:52.513Z,102868.50
2023-04-08T13:59:22.583Z,102861.41
2023-04-08T14:01:54.340Z,102869.44
2023-04-08T14:04:23.227Z,102865.91
2023-04-08T14:06:53.340Z,102866.75
2023-04-08T14:09:22.329Z,102865.84
2023-04-08T14:11:50.673Z,102865.78
2023-04-08T14:14:19.016Z,102863.19
2023-04-08T14:16:48.554Z,102860.59
2023-04-08T14:19:16.940Z,102848.09
2023-04-08T14:21:45.047Z,102871.13
2023-04-08T14:24:13.184Z,102853.34
2023-04-08T14:26:41.501Z,102869.44
2023-04-08T14:29:10.188Z,102862.34
2023-04-08T14:31:38.460Z,102865.84
2023-04-08T14:34:08.115Z,102853.41
2023-04-08T14:36:36.402Z,102858.75
2023-04-08T14:39:04.817Z,102858.72
2023-04-08T14:41:33.543Z,102835.63
2023-04-08T14:44:01.979Z,102853.50
2023-04-08T14:46:30.797Z,102847.28
2023-04-08T14:48:59.449Z,102858.75
2023-04-08T14:51:29.192Z,102842.81
2023-04-08T14:53:57.547Z,102826.84
2023-04-08T14:56:26.022Z,102832.16
2023-04-08T14:58:54.658Z,102840.16
2023-04-08T15:01:23.287Z,102837.50
2023-04-08T15:03:52.038Z,102828.59
2023-04-08T15:06:21.905Z,102843.69
2023-04-08T15:08:52.290Z,102834.81
2023-04-08T15:11:21.074Z,102835.66
2023-04-08T15:13:49.711Z,102837.47
2023-04-08T15:16:18.028Z,102826.78
2023-04-08T15:18:46.312Z,102841.00
2023-04-08T15:21:14.511Z,102839.25
2023-04-08T15:23:44.242Z,102839.28
2023-04-08T15:26:16.980Z,102833.06
2023-04-08T15:28:45.326Z,102833.97
2023-04-08T15:31:13.849Z,102837.47
2023-04-08T15:33:43.248Z,102827.69
2023-04-08T15:36:11.742Z,102824.16
2023-04-08T15:38:40.100Z,102823.25
2023-04-08T15:41:08.205Z,102831.31
2023-04-08T15:43:37.943Z,102828.66
2023-04-08T15:46:06.332Z,102825.00
2023-04-08T15:48:34.747Z,102817.94
2023-04-08T15:51:08.618Z,102825.06
2023-04-08T15:53:37.547Z,102820.56
2023-04-08T15:56:06.702Z,102830.25
2023-04-08T15:58:35.421Z,102824.09
2023-04-08T16:01:05.493Z,102829.47
2023-04-08T16:03:33.774Z,102832.13
2023-04-08T16:06:02.505Z,102833.88
2023-04-08T16:08:32.441Z,102825.94
2023-04-08T16:11:02.531Z,102826.81
2023-04-08T16:13:31.379Z,102826.75
2023-04-08T16:16:02.557Z,102830.34
2023-04-08T16:18:32.464Z,102828.59
2023-04-08T16:21:00.620Z,102825.94
2023-04-08T16:23:29.122Z,102830.31
2023-04-08T16:25:57.917Z,102827.66
2023-04-08T16:28:27.808Z,102828.50
2023-04-08T16:30:56.453Z,102824.91
2023-04-08T16:33:30.057Z,102832.91
2023-04-08T16:36:00.867Z,102835.59
2023-04-08T16:38:29.322Z,102828.50
2023-04-08T16:41:00.108Z,102833.81
2023-04-08T16:43:31.249Z,102833.75
2023-04-08T16:45:59.716Z,102830.22
2023-04-08T16:48:28.414Z,102831.94
2023-04-08T16:50:57.861Z,102844.38
2023-04-08T16:53:27.823Z,102842.72
2023-04-08T16:55:56.366Z,102840.94
2023-04-08T16:58:24.502Z,102836.47
2023-04-08T17:00:52.761Z,102835.63
2023-04-08T17:03:21.029Z,102837.34
2023-04-08T17:05:51.906Z,102842.66
2023-04-08T17:08:21.554Z,102836.41
2023-04-08T17:10:51.187Z,102839.91
2023-04-08T17:13:19.334Z,102835.47
2023-04-08T17:15:48.424Z,102849.63
2023-04-08T17:18:16.730Z,102839.00
2023-04-08T17:20:45.071Z,102851.41
2023-04-08T17:23:14.305Z,102850.34
2023-04-08T17:25:42.943Z,102851.19
2023-04-08T17:28:12.936Z,102847.06
2023-04-08T17:30:41.463Z,102849.72
2023-04-08T17:33:09.737Z,102856.75
2023-04-08T17:35:37.946Z,102863.63
2023-04-08T17:38:06.246Z,102862.78
2023-04-08T17:40:34.665Z,102860.06
2023-04-08T17:43:03.030Z,102864.47
2023-04-08T17:45:33.147Z,102870.63
2023-04-08T17:48:02.044Z,102874.91
2023-04-08T17:50:30.333Z,102881.88
2023-04-08T17:52:58.642Z,102880.03
2023-04-08T17:55:27.110Z,102879.00
2023-04-08T17:57:55.998Z,102882.44
2023-04-08T18:00:24.904Z,102893.97
2023-04-08T18:02:54.722Z,102899.22
2023-04-08T18:05:23.051Z,102906.09
2023-04-08T18:07:53.120Z,102899.75
2023-04-08T18:10:23.287Z,102904.16
2023-04-08T18:12:57.801Z,102906.09
2023-04-08T18:15:37.064Z,102876.31
2023-04-08T18:18:06.800Z,102909.19
2023-04-08T18:20:37.452Z,102908.38
2023-04-08T18:23:05.783Z,102913.78
2023-04-08T18:25:34.629Z,102920.72
2023-04-08T18:28:02.979Z,102910.13
2023-04-08T18:30:31.308Z,102911.84
2023-04-08T18:32:59.553Z,102881.56
2023-04-08T18:35:29.364Z,102922.28
2023-04-08T18:38:00.184Z,102902.78
2023-04-08T18:40:29.813Z,102909.88
2023-04-08T18:43:03.740Z,102911.84
2023-04-08T18:45:32.186Z,102909.94
2023-04-08T18:48:00.657Z,102918.78
2023-04-08T18:50:30.208Z,102924.03
2023-04-08T18:53:01.516Z,102918.28
2023-04-08T18:55:29.758Z,102903.97
2023-04-08T18:58:01.021Z,102920.03
2023-04-08T19:00:29.289Z,102915.53
2023-04-08T19:02:58.121Z,102897.00
2023-04-08T19:05:26.776Z,102913.06
2023-04-08T19:07:56.866Z,102922.69
2023-04-08T19:10:25.628Z,102924.97
2023-04-08T19:12:53.908Z,102920.66
2023-04-08T19:15:22.304Z,102916.75
2023-04-08T19:17:50.537Z,102920.19
2023-04-08T19:20:18.995Z,102927.22
2023-04-08T19:22:48.757Z,102929.81
2023-04-08T19:25:19.091Z,102906.88
2023-04-08T19:27:48.006Z,102929.97
2023-04-08T19:30:16.673Z,102922.75
2023-04-08T19:32:45.960Z,102933.63
2023-04-08T19:35:14.387Z,102926.41
2023-04-08T19:37:43.226Z,102936.25
2023-04-08T19:40:11.963Z,102925.47
2023-04-08T19:42:41.678Z,102926.56
2023-04-08T19:45:11.022Z,102896.03
2023-04-08T19:47:39.993Z,102934.63
2023-04-08T19:50:09.678Z,102927.50
2023-04-08T19:52:38.030Z,102930.25
2023-04-08T19:55:07.101Z,102927.50
2023-04-08T19:57:35.822Z,102933.16
2023-04-08T20:00:06.418Z,102935.88
2023-04-08T20:02:34.773Z,102936.69
2023-04-08T20:05:03.263Z,102917.22
2023-04-08T20:07:31.806Z,102919.78
2023-04-08T20:10:00.333Z,102933.72
2023-04-08T20:12:30.623Z,102939.09
2023-04-08T20:14:58.989Z,102939.47
2023-04-08T20:17:28.621Z,102935.97
2023-04-08T20:19:56.849Z,102935.63
2023-04-08T20:22:25.894Z,102942.13
2023-04-08T20:24:54.360Z,102904.59
2023-04-08T20:27:22.973Z,102941.81
2023-04-08T20:29:57.038Z,102942.13
2023-04-08T20:32:25.451Z,102940.25
2023-04-08T20:34:55.786Z,102935.25
2023-04-08T20:37:24.461Z,102924.84
2023-04-08T20:39:52.569Z,102932.22
2023-04-08T20:42:21.106Z,102940.59
2023-04-08T20:44:49.351Z,102939.84
2023-04-08T20:47:17.434Z,102942.63
2023-04-08T20:49:46.387Z,102937.34
2023-04-08T20:52:16.198Z,102947.00
2023-04-08T20:54:44.428Z,102954.00
2023-04-08T20:57:12.813Z,102961.06
2023-04-08T20:59:41.369Z,102957.59
2023-04-08T21:02:10.288Z,102954.56
2023-04-08T21:04:38.983Z,102942.50
2023-04-08T21:07:07.269Z,102946.06
2023-04-08T21:09:36.893Z,102943.47
2023-04-08T21:12:05.508Z,102951.91
2023-04-08T21:14:34.998Z,102953.19
2023-04-08T21:17:03.152Z,102958.94
2023-04-08T21:19:31.294Z,102961.50
2023-04-08T21:21:59.766Z,102960.78
2023-04-08T21:24:28.495Z,102967.50
2023-04-08T21:26:58.837Z,102958.16
2023-04-08T21:29:27.814Z,102971.81
2023-04-08T21:31:59.238Z,102957.16
2023-04-08T21:34:28.060Z,102969.69
2023-04-08T21:36:56.935Z,102944.50
2023-04-08T21:39:26.352Z,102954.59
2023-04-08T21:41:54.425Z,102960.63
2023-04-08T21:44:24.137Z,102957.66
2023-04-08T21:46:52.262Z,102947.50
2023-04-08T21:49:20.426Z,102948.22
2023-04-08T21:51:49.161Z,102951.88
2023-04-08T21:54:17.535Z,102952.13
2023-04-08T21:56:45.656Z,102952.59
2023-04-08T21:59:14.072Z,102962.06
2023-04-08T22:01:43.778Z,102964.09
2023-04-08T22:04:12.234Z,102970.34
2023-04-08T22:06:41.166Z,102961.59
2023-04-08T22:09:09.268Z,102966.25
2023-04-08T22:11:37.518Z,102957.00
2023-04-08T22:14:05.895Z,102956.31
2023-04-08T22:16:34.034Z,102962.06
2023-04-08T22:19:03.770Z,102963.72
2023-04-08T22:21:32.359Z,102966.78
2023-04-08T22:24:00.825Z,102961.59
2023-04-08T22:26:28.948Z,102965.75
2023-04-08T22:28:57.263Z,102956.00
2023-04-08T22:31:25.688Z,102966.78
2023-04-08T22:33:53.866Z,102965.16
2023-04-08T22:36:23.680Z,102959.03
2023-04-08T22:38:52.614Z,102965.16
2023-04-08T22:41:22.484Z,102954.66
2023-04-08T22:43:52.039Z,102952.66
2023-04-08T22:46:20.418Z,102950.34
2023-04-08T22:48:49.448Z,102953.91
2023-04-08T22:51:18.148Z,102954.00
2023-04-08T22:53:47.807Z,102946.38
2023-04-08T22:56:16.094Z,102947.13
2023-04-08T22:58:45.211Z,102945.59
2023-04-08T23:01:14.696Z,102946.84
2023-04-08T23:03:43.155Z,102945.41
2023-04-08T23:06:11.975Z,102955.00
2023-04-08T23:08:40.246Z,102962.59
2023-04-08T23:11:09.988Z,102952.19
2023-04-08T23:13:38.411Z,102938.72
2023-04-08T23:16:06.926Z,102954.81
2023-04-08T23:18:35.087Z,102942.53
2023-04-08T23:21:04.054Z,102941.72
2023-04-08T23:23:32.901Z,102951.69
2023-04-08T23:26:01.109Z,102958.78
2023-04-08T23:28:30.877Z,102958.63
2023-04-08T23:30:59.061Z,102963.44
2023-04-08T23:33:27.303Z,102958.31
2023-04-08T23:35:55.956Z,102955.31
2023-04-08T23:38:24.226Z,102959.41
2023-04-08T23:40:52.976Z,102958.66
2023-04-08T23:43:21.432Z,102962.94
2023-04-08T23:45:50.978Z,102962.91
2023-04-08T23:48:19.180Z,102957.28
2023-04-08T23:50:51.709Z,102951.34
2023-04-08T23:53:20.186Z,102941.38
2023-04-08T23:55:48.903Z,102945.84
2023-04-08T23:58:17.297Z,102953.09
